Time;durP1;ratioP1;P1;durP2;ratioP2;P2;SDS_P1;SDS_P2;PMS_P1;PMS_P2;Temp;Humidity;BMP_temperature;BMP_pressure;BME280_temperature;BME280_humidity;BME280_pressure;Samples;Min_cycle;Max_cycle;Signal;HPM_P1;HPM_P2
2020/12/31 00:01:27;;;;;;;81.65;47.30;;;-0.30;99.90;;;;;;5039133;28;20021;-60
2020/12/31 00:03:54;;;;;;;78.27;44.57;;;-0.30;99.90;;;;;;5039222;28;20235;-60
2020/12/31 00:06:19;;;;;;;74.40;47.97;;;-0.30;99.90;;;;;;5039353;28;20245;-60
2020/12/31 00:08:46;;;;;;;79.47;45.70;;;-0.40;99.90;;;;;;5021503;28;20600;-60
2020/12/31 00:11:12;;;;;;;76.50;48.73;;;-0.40;99.90;;;;;;5021693;28;20319;-60
2020/12/31 00:13:38;;;;;;;78.10;47.20;;;-0.50;99.90;;;;;;5038859;28;20307;-60
2020/12/31 00:16:05;;;;;;;84.27;49.53;;;-0.40;99.90;;;;;;5021376;28;20265;-60
2020/12/31 00:18:31;;;;;;;88.67;53.00;;;-0.50;99.90;;;;;;5042891;28;20094;-60
2020/12/31 00:20:56;;;;;;;83.27;49.67;;;-0.40;99.90;;;;;;5040959;28;20224;-60
2020/12/31 00:23:22;;;;;;;86.47;47.43;;;-0.40;99.90;;;;;;5058622;28;20318;-60
2020/12/31 00:25:50;;;;;;;83.07;44.43;;;-0.40;99.90;;;;;;5057451;28;20025;-60
2020/12/31 00:28:17;;;;;;;93.20;51.35;;;-0.40;99.90;;;;;;5058617;28;20304;-60
2020/12/31 00:30:47;;;;;;;84.50;49.03;;;-0.50;99.90;;;;;;5057860;28;20048;-60
2020/12/31 00:33:17;;;;;;;83.77;49.60;;;-0.40;99.90;;;;;;5058102;28;20220;-60
2020/12/31 00:35:44;;;;;;;92.47;50.20;;;-0.50;99.90;;;;;;5058456;28;20291;-60
2020/12/31 00:38:10;;;;;;;98.10;52.97;;;-0.30;99.90;;;;;;5058576;28;20055;-60
2020/12/31 00:40:36;;;;;;;106.93;54.47;;;-0.40;99.90;;;;;;5058749;28;20655;-60
2020/12/31 00:43:02;;;;;;;90.87;47.80;;;-0.40;99.90;;;;;;5058092;28;19954;-59
2020/12/31 00:45:28;;;;;;;79.00;44.80;;;-0.30;99.90;;;;;;5058412;28;20037;-60
2020/12/31 00:47:54;;;;;;;73.10;44.33;;;-0.40;99.90;;;;;;5040576;28;20228;-59
2020/12/31 00:50:22;;;;;;;88.80;51.10;;;-0.50;99.90;;;;;;5058186;28;20032;-60
2020/12/31 00:52:48;;;;;;;81.10;46.60;;;-0.50;99.90;;;;;;5058774;28;20242;-60
2020/12/31 00:55:14;;;;;;;80.45;47.00;;;-0.60;99.90;;;;;;5058259;28;20275;-60
2020/12/31 00:57:40;;;;;;;77.00;45.20;;;-0.60;99.90;;;;;;5058368;28;20075;-60
2020/12/31 01:00:06;;;;;;;96.17;48.23;;;-0.60;99.90;;;;;;5040661;28;19909;-60
2020/12/31 01:02:31;;;;;;;84.10;49.47;;;-0.60;99.90;;;;;;5057794;28;20025;-60
2020/12/31 01:04:57;;;;;;;77.30;46.10;;;-0.60;99.90;;;;;;5057788;28;20419;-60
2020/12/31 01:07:23;;;;;;;82.15;48.90;;;-0.70;99.90;;;;;;5057925;28;20017;-60
2020/12/31 01:09:48;;;;;;;80.13;44.87;;;-0.70;99.90;;;;;;5058155;28;19917;-60
2020/12/31 01:12:14;;;;;;;78.57;46.83;;;-0.70;99.90;;;;;;5057856;28;19908;-60
2020/12/31 01:14:40;;;;;;;80.90;45.90;;;-0.70;99.90;;;;;;5040190;28;20071;-59
2020/12/31 01:17:05;;;;;;;74.23;45.07;;;-0.70;99.90;;;;;;5039776;28;19912;-60
2020/12/31 01:19:32;;;;;;;78.13;42.70;;;-0.70;99.90;;;;;;5057767;28;20082;-59
2020/12/31 01:21:57;;;;;;;74.37;44.07;;;-0.70;99.90;;;;;;5058016;28;20024;-60
2020/12/31 01:24:23;;;;;;;74.10;44.17;;;-0.70;99.90;;;;;;5040005;28;20425;-60
2020/12/31 01:26:48;;;;;;;91.33;49.80;;;-0.70;99.90;;;;;;5057900;28;20035;-60
2020/12/31 01:29:14;;;;;;;93.63;52.73;;;-0.70;99.90;;;;;;5057507;28;20025;-60
2020/12/31 01:31:40;;;;;;;92.47;52.93;;;-0.70;99.90;;;;;;5057802;28;20255;-60
2020/12/31 01:34:06;;;;;;;91.43;52.77;;;-0.70;99.90;;;;;;5057035;28;20007;-60
2020/12/31 01:36:33;;;;;;;91.33;53.40;;;-0.70;99.90;;;;;;5057456;28;20118;-60
2020/12/31 01:38:59;;;;;;;85.77;48.03;;;-0.70;99.90;;;;;;5057242;28;20441;-60
2020/12/31 01:41:26;;;;;;;80.07;46.10;;;-0.70;99.90;;;;;;5057533;28;20244;-59
2020/12/31 01:44:09;;;;;;;94.93;49.43;;;-0.70;99.90;;;;;;5039365;28;20025;-60
2020/12/31 01:46:37;;;;;;;82.20;49.55;;;-0.70;99.90;;;;;;5057440;28;20479;-60
2020/12/31 01:49:05;;;;;;;85.50;48.43;;;-0.70;99.90;;;;;;5056932;28;20192;-60
2020/12/31 01:51:34;;;;;;;84.80;50.15;;;-0.80;99.90;;;;;;5039428;28;20220;-60
2020/12/31 01:54:00;;;;;;;80.80;47.23;;;-0.80;99.90;;;;;;5056687;28;20208;-59
2020/12/31 01:56:31;;;;;;;77.57;45.73;;;-0.80;99.90;;;;;;5057036;28;20277;-60
2020/12/31 01:58:57;;;;;;;83.00;46.90;;;-0.80;99.90;;;;;;5039243;28;20294;-60
2020/12/31 02:01:25;;;;;;;82.40;46.77;;;-0.90;99.90;;;;;;5056904;28;20216;-60
2020/12/31 02:03:52;;;;;;;83.67;47.13;;;-0.90;99.90;;;;;;5056784;28;20055;-59
2020/12/31 02:06:20;;;;;;;76.37;45.50;;;-0.90;99.90;;;;;;5038885;28;20252;-60
2020/12/31 02:08:45;;;;;;;77.13;45.07;;;-0.90;99.90;;;;;;5056680;28;20248;-59
2020/12/31 02:11:16;;;;;;;77.63;44.23;;;-1.00;99.90;;;;;;5056993;28;20240;-60
2020/12/31 02:13:42;;;;;;;75.33;47.63;;;-1.00;99.90;;;;;;5056938;28;20082;-60
2020/12/31 02:16:19;;;;;;;77.87;45.77;;;-0.90;99.90;;;;;;5056922;28;20254;-60
2020/12/31 02:19:02;;;;;;;75.50;44.60;;;-0.90;99.90;;;;;;5056451;28;20268;-60
2020/12/31 02:21:33;;;;;;;71.32;42.28;;;-1.00;99.90;;;;;;5056416;28;20697;-60
2020/12/31 02:24:00;;;;;;;80.95;42.20;;;-1.00;99.90;;;;;;5056410;28;20087;-60
2020/12/31 02:26:28;;;;;;;68.70;40.50;;;-1.00;99.90;;;;;;5056556;28;20220;-60
2020/12/31 02:28:55;;;;;;;67.20;39.35;;;-0.90;99.90;;;;;;5056734;28;20059;-60
2020/12/31 02:31:22;;;;;;;68.30;38.20;;;-1.00;99.90;;;;;;5056711;28;20591;-60
2020/12/31 02:33:49;;;;;;;68.85;38.30;;;-1.00;99.90;;;;;;5056686;28;20653;-60
2020/12/31 02:36:17;;;;;;;59.50;37.40;;;-1.10;99.90;;;;;;5056355;28;20048;-59
2020/12/31 02:38:43;;;;;;;66.03;37.47;;;-1.00;99.90;;;;;;5056260;28;20627;-59
2020/12/31 02:41:09;;;;;;;61.23;37.47;;;-1.00;99.90;;;;;;5056312;28;20342;-59
2020/12/31 02:43:36;;;;;;;68.37;35.07;;;-1.10;99.90;;;;;;5038773;28;20259;-60
2020/12/31 02:46:08;;;;;;;57.87;35.17;;;-1.10;99.90;;;;;;5055946;28;19909;-59
2020/12/31 02:48:34;;;;;;;61.07;36.13;;;-1.10;99.90;;;;;;5056450;28;20052;-60
2020/12/31 02:51:00;;;;;;;65.40;38.90;;;-1.20;99.90;;;;;;5056396;28;20232;-60
2020/12/31 02:53:25;;;;;;;71.33;40.77;;;-1.30;99.90;;;;;;5056446;28;20036;-59
2020/12/31 02:55:51;;;;;;;64.37;39.47;;;-1.30;99.90;;;;;;5062129;28;20120;-59
2020/12/31 02:58:17;;;;;;;63.47;35.87;;;-1.20;99.90;;;;;;5062838;28;20032;-59
2020/12/31 03:00:43;;;;;;;63.00;36.50;;;-1.20;99.90;;;;;;5062981;28;19916;-60
2020/12/31 03:03:09;;;;;;;67.70;39.40;;;-1.20;99.90;;;;;;5062768;28;20374;-60
2020/12/31 03:05:34;;;;;;;64.40;36.53;;;-1.20;99.90;;;;;;5062389;28;20068;-60
2020/12/31 03:08:00;;;;;;;66.30;38.03;;;-1.20;99.90;;;;;;5062904;28;20244;-60
2020/12/31 03:10:26;;;;;;;65.00;38.03;;;-1.20;99.90;;;;;;5063010;28;19908;-60
2020/12/31 03:12:52;;;;;;;72.30;40.43;;;-1.20;99.90;;;;;;5045108;28;19912;-60
2020/12/31 03:15:20;;;;;;;62.93;40.37;;;-1.20;99.90;;;;;;5062700;28;20435;-60
2020/12/31 03:17:45;;;;;;;68.43;37.50;;;-1.30;99.90;;;;;;5063314;28;20028;-60
2020/12/31 03:20:11;;;;;;;58.53;34.63;;;-1.30;99.90;;;;;;5038471;28;20221;-60
2020/12/31 03:22:37;;;;;;;63.90;36.37;;;-1.30;99.90;;;;;;5042286;28;19927;-60
2020/12/31 03:25:04;;;;;;;60.20;35.90;;;-1.30;99.90;;;;;;5042567;28;19909;-60
2020/12/31 03:27:30;;;;;;;67.00;35.73;;;-1.30;99.90;;;;;;5024648;28;20029;-60
2020/12/31 03:29:56;;;;;;;63.10;35.37;;;-1.30;99.90;;;;;;5042414;28;20237;-60
2020/12/31 03:32:22;;;;;;;71.47;38.20;;;-1.30;99.90;;;;;;5061190;28;20418;-60
2020/12/31 03:34:48;;;;;;;68.10;38.40;;;-1.30;99.90;;;;;;5062901;28;20132;-60
2020/12/31 03:37:14;;;;;;;59.17;36.33;;;-1.30;99.90;;;;;;5062249;28;20075;-60
2020/12/31 03:39:41;;;;;;;56.17;34.27;;;-1.30;99.90;;;;;;5062758;28;20220;-60
2020/12/31 03:42:07;;;;;;;64.10;37.90;;;-1.30;99.90;;;;;;5062499;28;20029;-60
2020/12/31 03:44:32;;;;;;;70.47;40.10;;;-1.40;99.90;;;;;;5062470;28;20258;-60
2020/12/31 03:46:58;;;;;;;66.25;36.30;;;-1.40;99.90;;;;;;5062706;28;20025;-60
2020/12/31 03:49:24;;;;;;;63.23;35.90;;;-1.40;99.90;;;;;;5062202;28;20025;-60
2020/12/31 03:51:49;;;;;;;58.40;35.00;;;-1.40;99.90;;;;;;5062597;28;20083;-60
2020/12/31 03:54:15;;;;;;;62.37;34.57;;;-1.40;99.90;;;;;;5062687;28;20324;-60
2020/12/31 03:56:41;;;;;;;54.33;32.70;;;-1.40;99.90;;;;;;5062443;28;19916;-60
2020/12/31 03:59:06;;;;;;;59.97;37.30;;;-1.40;99.90;;;;;;5044701;28;20423;-60
2020/12/31 04:01:33;;;;;;;60.80;35.23;;;-1.50;99.90;;;;;;5044660;28;19905;-60
2020/12/31 04:04:00;;;;;;;63.23;37.53;;;-1.50;99.90;;;;;;5061997;28;20032;-60
2020/12/31 04:06:26;;;;;;;67.77;34.83;;;-1.50;99.90;;;;;;5060449;28;20785;-60
2020/12/31 04:08:51;;;;;;;53.30;35.10;;;-1.60;99.90;;;;;;5058907;28;20240;-60
2020/12/31 04:11:17;;;;;;;60.70;35.90;;;-1.60;99.90;;;;;;5059052;28;20686;-60
2020/12/31 04:13:43;;;;;;;56.60;34.80;;;-1.50;99.90;;;;;;5059263;28;19955;-60
2020/12/31 04:16:08;;;;;;;54.53;34.13;;;-1.60;99.90;;;;;;5059189;28;20037;-60
2020/12/31 04:18:34;;;;;;;63.47;34.57;;;-1.60;99.90;;;;;;5058990;28;20040;-60
2020/12/31 04:21:00;;;;;;;63.45;38.35;;;-1.60;99.90;;;;;;5058510;28;20025;-60
2020/12/31 04:23:25;;;;;;;58.90;34.63;;;-1.60;99.90;;;;;;5058727;28;20028;-60
2020/12/31 04:25:51;;;;;;;68.20;36.80;;;-1.60;99.90;;;;;;5059028;28;19999;-60
2020/12/31 04:28:17;;;;;;;63.17;35.33;;;-1.60;99.90;;;;;;5058872;28;19967;-60
2020/12/31 04:30:47;;;;;;;71.00;34.20;;;-1.60;99.90;;;;;;5058965;28;20242;-60
2020/12/31 04:33:14;;;;;;;53.70;32.07;;;-1.70;99.90;;;;;;5058785;28;20238;-60
2020/12/31 04:35:40;;;;;;;52.43;31.30;;;-1.70;99.90;;;;;;5058661;28;20564;-60
2020/12/31 04:38:06;;;;;;;62.27;33.70;;;-1.80;99.90;;;;;;5058550;28;20056;-60
2020/12/31 04:40:32;;;;;;;49.95;28.55;;;-1.80;99.90;;;;;;5058653;28;20037;-60
2020/12/31 04:42:59;;;;;;;45.80;27.60;;;-1.70;99.90;;;;;;5057864;28;20260;-60
2020/12/31 04:45:26;;;;;;;51.63;32.03;;;-1.70;99.90;;;;;;5058293;28;20288;-59
2020/12/31 04:47:57;;;;;;;52.40;29.60;;;-1.80;99.90;;;;;;5058313;28;20104;-60
2020/12/31 04:50:28;;;;;;;50.07;31.37;;;-1.70;99.90;;;;;;5040061;28;20243;-60
2020/12/31 04:52:54;;;;;;;58.27;33.13;;;-1.70;99.90;;;;;;5058026;28;20244;-60
2020/12/31 04:55:21;;;;;;;58.17;32.43;;;-1.70;99.90;;;;;;5058044;28;20027;-60
2020/12/31 04:57:47;;;;;;;50.47;32.17;;;-1.80;99.90;;;;;;5058103;28;20324;-60
2020/12/31 05:00:13;;;;;;;53.77;29.23;;;-1.70;99.90;;;;;;5040159;28;20258;-60
2020/12/31 05:02:39;;;;;;;55.10;30.97;;;-1.80;99.90;;;;;;5057972;28;20020;-59
2020/12/31 05:05:05;;;;;;;56.23;32.87;;;-1.70;99.90;;;;;;5050828;28;20407;-59
2020/12/31 05:07:32;;;;;;;54.03;34.03;;;-1.80;99.90;;;;;;5037817;28;20348;-60
2020/12/31 05:10:11;;;;;;;62.57;32.17;;;-1.90;99.90;;;;;;5037725;28;20265;-59
2020/12/31 05:12:36;;;;;;;58.70;33.67;;;-1.80;99.90;;;;;;5038085;28;20546;-60
2020/12/31 05:15:02;;;;;;;57.93;32.33;;;-1.90;99.90;;;;;;5037646;28;20114;-59
2020/12/31 05:17:30;;;;;;;59.47;33.00;;;-1.90;99.90;;;;;;5019745;28;20435;-59
2020/12/31 05:19:55;;;;;;;52.43;32.43;;;-1.90;99.90;;;;;;5037545;28;20051;-60
2020/12/31 05:22:21;;;;;;;56.40;34.00;;;-1.90;99.90;;;;;;5038179;28;20043;-59
2020/12/31 05:24:49;;;;;;;59.10;36.43;;;-1.90;99.90;;;;;;5037374;28;20083;-59
2020/12/31 05:27:26;;;;;;;57.13;33.60;;;-1.80;99.90;;;;;;5037636;28;19909;-59
2020/12/31 05:29:57;;;;;;;56.50;30.60;;;-1.90;99.90;;;;;;5037588;28;20353;-59
2020/12/31 05:32:24;;;;;;;57.40;30.40;;;-1.90;99.90;;;;;;5038027;28;20104;-59
2020/12/31 05:34:52;;;;;;;51.60;29.27;;;-1.90;99.90;;;;;;5037666;28;20224;-59
2020/12/31 05:37:19;;;;;;;49.25;29.95;;;-1.90;99.90;;;;;;5037352;28;20088;-59
2020/12/31 05:39:59;;;;;;;55.67;28.57;;;-1.90;99.90;;;;;;5019279;28;20276;-59
2020/12/31 05:42:27;;;;;;;45.70;27.45;;;-1.90;99.90;;;;;;5037470;28;20257;-59
2020/12/31 05:45:07;;;;;;;39.95;25.80;;;-1.90;99.90;;;;;;5037045;28;20208;-59
2020/12/31 05:47:34;;;;;;;43.63;27.47;;;-1.90;99.90;;;;;;5037185;28;20337;-59
2020/12/31 05:50:00;;;;;;;46.55;27.75;;;-1.90;99.90;;;;;;5019608;28;20693;-59
2020/12/31 05:52:37;;;;;;;47.13;27.70;;;-1.90;99.90;;;;;;5018864;28;20282;-59
2020/12/31 05:55:05;;;;;;;47.40;28.50;;;-2.00;99.90;;;;;;5037462;28;20116;-58
2020/12/31 05:57:46;;;;;;;61.50;37.90;;;-2.00;99.90;;;;;;5019359;28;20228;-58
2020/12/31 06:00:17;;;;;;;59.50;31.95;;;-1.90;99.90;;;;;;5037381;28;20251;-58
2020/12/31 06:02:49;;;;;;;49.37;31.13;;;-1.90;99.90;;;;;;5036859;28;20231;-58
2020/12/31 06:05:15;;;;;;;55.50;32.80;;;-1.90;99.90;;;;;;5037095;28;20261;-58
2020/12/31 06:07:47;;;;;;;55.75;32.35;;;-1.90;99.90;;;;;;5037090;28;20312;-58
2020/12/31 06:10:18;;;;;;;49.25;31.65;;;-1.90;99.90;;;;;;5037040;28;20307;-59
2020/12/31 06:12:50;;;;;;;42.30;25.80;;;-1.90;99.90;;;;;;5036507;28;20062;-58
2020/12/31 06:15:18;;;;;;;47.10;28.20;;;-1.90;99.90;;;;;;5036703;28;20273;-59
2020/12/31 06:17:47;;;;;;;45.10;25.20;;;-1.90;99.90;;;;;;5036620;28;20080;-59
2020/12/31 06:20:18;;;;;;;44.00;25.50;;;-2.00;99.90;;;;;;5036590;28;20787;-59
2020/12/31 06:23:05;;;;;;;38.00;22.95;;;-2.00;99.90;;;;;;5036357;28;20649;-59
2020/12/31 06:25:34;;;;;;;44.03;22.30;;;-2.10;99.90;;;;;;5019017;28;20270;-59
2020/12/31 06:28:09;;;;;;;41.23;22.13;;;-2.00;99.90;;;;;;5036168;28;20238;-59
2020/12/31 06:30:36;;;;;;;34.57;21.53;;;-2.10;99.90;;;;;;5035511;28;20351;-59
2020/12/31 06:33:13;;;;;;;33.30;20.23;;;-2.10;99.90;;;;;;5036367;28;20205;-60
2020/12/31 06:35:40;;;;;;;37.57;21.70;;;-2.20;99.90;;;;;;5036682;28;20282;-59
2020/12/31 06:38:07;;;;;;;35.10;20.40;;;-2.10;99.90;;;;;;5036330;28;20066;-59
2020/12/31 06:40:34;;;;;;;35.43;21.77;;;-2.10;99.90;;;;;;5036669;28;20275;-60
2020/12/31 06:43:09;;;;;;;31.10;19.77;;;-2.10;99.90;;;;;;5036220;28;20217;-59
2020/12/31 06:45:48;;;;;;;30.50;19.90;;;-2.10;99.90;;;;;;5036716;28;20038;-59
2020/12/31 06:48:26;;;;;;;34.45;21.20;;;-2.10;99.90;;;;;;5036540;28;20138;-59
2020/12/31 06:51:27;;;;;;;37.10;19.85;;;-2.20;99.90;;;;;;5017005;28;20243;-59
2020/12/31 06:53:53;;;;;;;33.30;20.63;;;-2.10;99.90;;;;;;4956256;29;20283;-59
2020/12/31 06:56:42;;;;;;;30.80;18.63;;;-2.10;99.90;;;;;;5004066;28;20091;-59
2020/12/31 06:59:33;;;;;;;37.07;21.00;;;-2.10;99.90;;;;;;4998470;28;20570;-59
2020/12/31 07:02:03;;;;;;;34.77;20.63;;;-2.10;99.90;;;;;;5016721;28;20081;-59
2020/12/31 07:04:39;;;;;;;43.50;24.00;;;-2.10;99.90;;;;;;5016405;28;20140;-59
2020/12/31 07:07:20;;;;;;;41.05;25.55;;;-2.20;99.90;;;;;;5000479;28;20365;-59
2020/12/31 07:10:02;;;;;;;52.40;27.75;;;-2.20;99.90;;;;;;5016540;28;20615;-59
2020/12/31 07:12:34;;;;;;;47.97;25.27;;;-2.20;99.90;;;;;;5016525;28;20367;-59
2020/12/31 07:15:00;;;;;;;47.30;25.40;;;-2.20;99.90;;;;;;5016671;28;20052;-59
2020/12/31 07:17:35;;;;;;;54.97;25.10;;;-2.20;99.90;;;;;;4999087;28;20270;-60
2020/12/31 07:20:02;;;;;;;42.50;24.20;;;-2.20;99.90;;;;;;5020900;28;19996;-60
2020/12/31 07:22:29;;;;;;;40.05;22.55;;;-2.20;99.90;;;;;;5035994;28;20691;-60
2020/12/31 07:25:14;;;;;;;43.70;24.25;;;-2.20;99.90;;;;;;5035876;28;20303;-59
2020/12/31 07:27:45;;;;;;;39.10;23.95;;;-2.20;99.90;;;;;;5036286;28;20238;-60
2020/12/31 07:30:18;;;;;;;43.20;23.10;;;-2.20;99.90;;;;;;5035913;28;20082;-60
2020/12/31 07:33:04;;;;;;;38.38;23.00;;;-2.30;99.90;;;;;;5036305;28;20568;-59
2020/12/31 07:35:34;;;;;;;44.00;26.50;;;-2.30;99.90;;;;;;5036126;28;20074;-60
2020/12/31 07:38:17;;;;;;;46.50;25.67;;;-2.20;99.90;;;;;;5036486;28;20364;-59
2020/12/31 07:40:44;;;;;;;47.80;28.33;;;-2.20;99.90;;;;;;5036924;28;20103;-59
2020/12/31 07:43:22;;;;;;;46.20;27.65;;;-2.20;99.90;;;;;;5039792;28;20029;-60
2020/12/31 07:45:55;;;;;;;57.73;31.57;;;-2.20;99.90;;;;;;5039736;28;20054;-60
2020/12/31 07:48:22;;;;;;;58.73;32.57;;;-2.20;99.90;;;;;;5021698;28;20146;-59
2020/12/31 07:50:55;;;;;;;56.83;31.47;;;-2.20;99.90;;;;;;5039784;28;20586;-59
2020/12/31 07:53:21;;;;;;;64.00;34.75;;;-2.20;99.90;;;;;;5005822;28;20052;-59
2020/12/31 07:55:49;;;;;;;72.43;38.13;;;-2.20;99.90;;;;;;5039079;28;19912;-59
2020/12/31 07:58:19;;;;;;;63.57;35.20;;;-2.20;99.90;;;;;;5039637;28;20025;-59
2020/12/31 08:00:56;;;;;;;62.13;35.60;;;-2.20;99.90;;;;;;5039251;28;20044;-59
2020/12/31 08:03:23;;;;;;;66.05;35.10;;;-2.20;99.90;;;;;;5039254;28;20232;-58
2020/12/31 08:05:58;;;;;;;52.50;29.60;;;-2.20;99.90;;;;;;5038722;28;25115;-59
2020/12/31 08:08:24;;;;;;;56.50;30.30;;;-2.30;99.90;;;;;;5039086;28;20085;-59
2020/12/31 08:10:49;;;;;;;57.00;30.13;;;-2.30;99.90;;;;;;5039178;28;20051;-59
2020/12/31 08:13:17;;;;;;;41.80;26.10;;;-2.30;99.90;;;;;;5020993;28;20224;-59
2020/12/31 08:15:52;;;;;;;45.70;25.05;;;-2.30;99.90;;;;;;5039208;28;20025;-59
2020/12/31 08:18:19;;;;;;;43.40;25.70;;;-2.30;99.90;;;;;;5038902;28;20229;-59
2020/12/31 08:20:46;;;;;;;45.00;25.70;;;-2.30;99.90;;;;;;5010680;28;20029;-59
2020/12/31 08:23:18;;;;;;;40.00;24.40;;;-2.30;99.90;;;;;;5019257;28;20257;-59
2020/12/31 08:25:47;;;;;;;41.45;24.60;;;-2.30;99.90;;;;;;5033159;28;20557;-58
2020/12/31 08:28:17;;;;;;;46.75;24.90;;;-2.10;99.90;;;;;;5038717;28;20228;-58
2020/12/31 08:30:43;;;;;;;42.30;25.40;;;-2.00;99.90;;;;;;5038778;28;20209;-57
2020/12/31 08:33:11;;;;;;;52.45;26.20;;;-1.90;99.90;;;;;;5038803;28;20311;-57
2020/12/31 08:35:41;;;;;;;42.65;23.25;;;-1.90;99.90;;;;;;5038520;28;20071;-58
2020/12/31 08:38:11;;;;;;;46.45;26.55;;;-1.80;99.90;;;;;;5038463;28;20436;-58
2020/12/31 08:40:44;;;;;;;56.20;29.45;;;-1.80;99.90;;;;;;5038758;28;20265;-58
2020/12/31 08:43:21;;;;;;;62.80;30.52;;;-1.60;99.90;;;;;;5038639;28;20243;-58
2020/12/31 08:45:51;;;;;;;55.50;31.90;;;-1.60;99.90;;;;;;5020648;28;20390;-57
2020/12/31 08:48:37;;;;;;;53.73;30.23;;;-1.70;99.90;;;;;;5020235;28;20232;-57
2020/12/31 08:51:04;;;;;;;54.30;28.45;;;-1.50;99.90;;;;;;5037757;28;20312;-57
2020/12/31 08:53:30;;;;;;;49.53;30.33;;;-1.40;99.90;;;;;;5037305;28;20635;-57
2020/12/31 08:55:56;;;;;;;45.40;27.10;;;-1.40;99.90;;;;;;5037752;28;20062;-57
2020/12/31 08:58:31;;;;;;;50.00;26.30;;;-1.40;99.90;;;;;;5038533;28;20229;-57
2020/12/31 09:00:57;;;;;;;41.80;23.83;;;-1.40;99.90;;;;;;5038386;28;19913;-58
2020/12/31 09:03:24;;;;;;;45.15;24.35;;;-1.20;99.90;;;;;;5038184;28;20581;-58
2020/12/31 09:05:58;;;;;;;50.80;25.65;;;-1.00;99.90;;;;;;5037901;28;20124;-58
2020/12/31 09:08:24;;;;;;;46.40;23.70;;;-1.00;99.90;;;;;;5038162;28;20278;-58
2020/12/31 09:11:03;;;;;;;38.40;23.03;;;-1.20;99.90;;;;;;5038090;28;20483;-58
2020/12/31 09:13:37;;;;;;;44.13;24.80;;;-1.10;99.90;;;;;;5037987;28;20354;-58
2020/12/31 09:16:09;;;;;;;40.17;22.27;;;-1.00;99.90;;;;;;5038140;28;20239;-58
2020/12/31 09:18:35;;;;;;;47.07;24.03;;;-0.80;99.90;;;;;;5037842;28;20235;-58
2020/12/31 09:21:01;;;;;;;38.77;22.70;;;-0.80;99.90;;;;;;5038081;28;20076;-58
2020/12/31 09:23:26;;;;;;;46.75;23.85;;;-0.60;99.90;;;;;;5037705;28;20034;-59
2020/12/31 09:25:52;;;;;;;37.73;21.13;;;-0.70;99.90;;;;;;5037710;28;20033;-58
2020/12/31 09:28:18;;;;;;;41.13;21.37;;;-0.70;99.90;;;;;;5020100;28;19917;-58
2020/12/31 09:30:45;;;;;;;33.80;19.40;;;-0.50;99.90;;;;;;5037883;28;20228;-58
2020/12/31 09:33:18;;;;;;;32.07;18.53;;;-0.40;99.90;;;;;;5037847;28;20029;-58
2020/12/31 09:35:44;;;;;;;33.23;16.70;;;-0.20;99.90;;;;;;5035856;28;20368;-58
2020/12/31 09:38:11;;;;;;;35.15;18.00;;;-0.20;99.90;;;;;;5030529;28;20025;-58
2020/12/31 09:40:37;;;;;;;35.10;17.70;;;-0.10;99.90;;;;;;5037341;28;20236;-58
2020/12/31 09:43:03;;;;;;;36.27;22.33;;;0.00;99.90;;;;;;5036327;28;20179;-58
2020/12/31 09:45:29;;;;;;;33.17;19.33;;;0.20;99.90;;;;;;5034014;28;20442;-58
2020/12/31 09:48:02;;;;;;;34.40;21.97;;;0.20;99.90;;;;;;5036349;28;20254;-60
2020/12/31 09:50:28;;;;;;;33.83;21.67;;;0.20;99.90;;;;;;5036945;28;20543;-59
2020/12/31 09:52:55;;;;;;;33.30;19.53;;;0.20;99.90;;;;;;5036335;28;20038;-63
2020/12/31 09:55:20;;;;;;;34.07;18.40;;;0.20;99.90;;;;;;5018488;28;20084;-63
2020/12/31 09:57:46;;;;;;;30.33;16.67;;;0.20;99.90;;;;;;5018815;28;20241;-63
2020/12/31 10:00:11;;;;;;;25.47;16.23;;;0.20;99.90;;;;;;5035975;28;20331;-64
2020/12/31 10:02:37;;;;;;;36.05;18.30;;;0.30;99.90;;;;;;5036491;28;20036;-63
2020/12/31 10:05:03;;;;;;;34.00;18.83;;;0.20;99.90;;;;;;5036667;28;19995;-63
2020/12/31 10:07:29;;;;;;;37.53;19.70;;;0.20;99.90;;;;;;5036644;28;20033;-64
2020/12/31 10:09:55;;;;;;;34.43;19.67;;;0.30;99.90;;;;;;5036502;28;20244;-64
2020/12/31 10:12:20;;;;;;;29.57;18.10;;;0.20;99.90;;;;;;5036478;28;19909;-63
2020/12/31 10:14:46;;;;;;;32.65;20.05;;;0.20;99.90;;;;;;5036836;28;19955;-63
2020/12/31 10:17:12;;;;;;;28.93;18.67;;;0.30;99.90;;;;;;5036462;28;20041;-63
2020/12/31 10:19:38;;;;;;;28.27;16.77;;;0.20;99.90;;;;;;5019000;28;20237;-64
2020/12/31 10:22:04;;;;;;;27.15;16.05;;;0.40;99.90;;;;;;5034832;28;19943;-64
2020/12/31 10:24:31;;;;;;;30.70;16.40;;;0.30;99.90;;;;;;5036010;28;20171;-64
2020/12/31 10:26:56;;;;;;;27.80;16.10;;;0.30;99.90;;;;;;5018616;28;20343;-64
2020/12/31 10:29:22;;;;;;;28.75;17.45;;;0.30;99.90;;;;;;5036465;28;20603;-64
2020/12/31 10:31:55;;;;;;;24.07;15.33;;;0.40;99.90;;;;;;5036205;28;20003;-63
2020/12/31 10:34:21;;;;;;;43.63;22.27;;;0.50;99.90;;;;;;5036406;28;20477;-64
2020/12/31 10:36:54;;;;;;;48.00;27.17;;;0.70;99.90;;;;;;5035937;28;20033;-64
2020/12/31 10:39:20;;;;;;;37.40;21.67;;;1.20;99.90;;;;;;5036706;28;20050;-64
2020/12/31 10:41:47;;;;;;;27.73;16.97;;;1.80;99.90;;;;;;5035925;28;20064;-63
2020/12/31 10:44:14;;;;;;;22.90;14.33;;;2.00;99.90;;;;;;5036319;28;19905;-64
2020/12/31 10:46:40;;;;;;;19.10;11.70;;;2.40;99.90;;;;;;5035527;28;20112;-63
2020/12/31 10:49:06;;;;;;;15.17;9.27;;;2.70;99.90;;;;;;5035696;28;20108;-65
2020/12/31 10:51:39;;;;;;;16.40;10.73;;;3.10;99.90;;;;;;5036024;28;19909;-65
2020/12/31 10:54:05;;;;;;;14.23;9.10;;;3.30;99.90;;;;;;5018332;28;20331;-63
2020/12/31 10:56:31;;;;;;;12.00;8.60;;;3.30;99.90;;;;;;5036194;28;20104;-63
2020/12/31 10:58:57;;;;;;;13.13;8.50;;;3.40;99.90;;;;;;5035602;28;19917;-64
2020/12/31 11:01:23;;;;;;;11.13;7.63;;;3.80;99.90;;;;;;5035731;28;20021;-63
2020/12/31 11:03:49;;;;;;;9.67;7.10;;;4.00;99.90;;;;;;5018455;28;20362;-64
2020/12/31 11:06:22;;;;;;;8.70;6.37;;;4.10;99.90;;;;;;5027126;28;19957;-64
2020/12/31 11:08:48;;;;;;;12.73;7.00;;;4.10;99.90;;;;;;5036120;28;20044;-63
2020/12/31 11:11:19;;;;;;;10.67;6.70;;;4.20;99.90;;;;;;5035911;28;20029;-63
2020/12/31 11:13:45;;;;;;;9.33;6.73;;;4.30;99.90;;;;;;5035871;28;20328;-63
2020/12/31 11:16:10;;;;;;;10.43;7.63;;;4.30;99.90;;;;;;5037272;28;20012;-63
2020/12/31 11:18:36;;;;;;;10.53;7.83;;;4.20;99.90;;;;;;5040090;28;20033;-64
2020/12/31 11:21:02;;;;;;;9.27;6.30;;;3.90;99.90;;;;;;5039742;28;20432;-64
2020/12/31 11:23:27;;;;;;;8.83;5.33;;;3.90;99.90;;;;;;5032319;28;20302;-63
2020/12/31 11:25:53;;;;;;;9.87;6.60;;;4.10;99.90;;;;;;5045462;28;20390;-63
2020/12/31 11:28:18;;;;;;;12.20;7.10;;;4.10;99.90;;;;;;5054805;28;20029;-63
2020/12/31 11:30:44;;;;;;;9.70;6.70;;;4.20;99.90;;;;;;5059207;28;20071;-63
2020/12/31 11:33:10;;;;;;;10.37;6.73;;;4.60;99.90;;;;;;5058679;28;20044;-64
2020/12/31 11:35:36;;;;;;;10.33;7.10;;;4.70;99.90;;;;;;5057827;28;19913;-63
2020/12/31 11:38:01;;;;;;;10.67;6.87;;;4.50;99.90;;;;;;5021500;28;20291;-64
2020/12/31 11:40:27;;;;;;;11.40;7.55;;;4.50;99.90;;;;;;5039820;28;20313;-63
2020/12/31 11:42:53;;;;;;;12.30;6.97;;;4.80;99.90;;;;;;5039583;28;20386;-63
2020/12/31 11:45:18;;;;;;;11.75;6.35;;;4.60;99.90;;;;;;5021872;28;20455;-63
2020/12/31 11:47:44;;;;;;;;;;;4.40;99.90;;;;;;5039857;28;20030;-63
2020/12/31 11:50:10;;;;;;;;;;;4.00;99.90;;;;;;5022318;28;20033;-63
2020/12/31 11:52:35;;;;;;;;;;;3.70;99.90;;;;;;5040118;28;20104;-63
2020/12/31 11:55:01;;;;;;;;;;;3.60;99.90;;;;;;5039996;28;20385;-64
2020/12/31 11:57:26;;;;;;;;;;;3.50;99.90;;;;;;5039795;28;20042;-63
2020/12/31 11:59:52;;;;;;;;;;;3.50;99.90;;;;;;5039802;28;20410;-63
2020/12/31 12:02:17;;;;;;;;;;;3.40;99.90;;;;;;5039594;28;20058;-63
2020/12/31 12:04:43;;;;;;;;;;;3.40;99.90;;;;;;5039685;28;20069;-63
2020/12/31 12:07:08;;;;;;;;;;;3.30;99.90;;;;;;5039144;28;20139;-63
2020/12/31 12:09:34;;;;;;;;;;;3.30;99.90;;;;;;5039432;28;20457;-63
2020/12/31 12:11:59;;;;;;;;;;;3.30;99.90;;;;;;5039340;28;20061;-63
2020/12/31 12:14:25;;;;;;;;;;;3.40;99.90;;;;;;5038067;28;20050;-63
2020/12/31 12:16:51;;;;;;;;;;;3.50;99.90;;;;;;5038546;28;20053;-63
2020/12/31 12:19:17;;;;;;;;;;;3.50;99.90;;;;;;5038344;28;20116;-63
2020/12/31 12:21:43;;;;;;;15.20;8.70;;;3.50;99.90;;;;;;5057157;28;20372;-63
2020/12/31 12:24:09;;;;;;;8.20;5.90;;;3.50;99.90;;;;;;5058082;28;20015;-63
2020/12/31 12:26:36;;;;;;;;;;;3.60;99.90;;;;;;5057299;28;19983;-63
2020/12/31 12:29:01;;;;;;;;;;;3.80;99.90;;;;;;5057845;28;20053;-63
2020/12/31 12:31:30;;;;;;;;;;;3.80;99.90;;;;;;5058580;28;20039;-63
2020/12/31 12:33:56;;;;;;;;;;;3.90;99.90;;;;;;5058287;28;20095;-63
2020/12/31 12:36:22;;;;;;;;;;;4.00;99.90;;;;;;5039570;28;20050;-63
2020/12/31 12:38:47;;;;;;;;;;;4.00;99.90;;;;;;5057544;28;19948;-63
2020/12/31 12:41:13;;;;;;;;;;;4.10;99.90;;;;;;5057895;28;20007;-63
2020/12/31 12:43:38;;;;;;;;;;;4.20;99.90;;;;;;5040689;28;20444;-62